sensor_id;sensor_type;location;lat;lon;timestamp;temperature;humidity
5394;DHT22;2720;52.396;10.064;2023-04-30T00:00:24;4.10;99.90
5394;DHT22;2720;52.396;10.064;2023-04-30T00:02:51;4.10;99.90
5394;DHT22;2720;52.396;10.064;2023-04-30T00:05:18;4.00;99.90
5394;DHT22;2720;52.396;10.064;2023-04-30T00:07:45;4.00;99.90
5394;DHT22;2720;52.396;10.064;2023-04-30T00:10:11;4.00;99.90
5394;DHT22;2720;52.396;10.064;2023-04-30T00:12:38;3.90;99.90
5394;DHT22;2720;52.396;10.064;2023-04-30T00:15:08;3.90;99.90
5394;DHT22;2720;52.396;10.064;2023-04-30T00:17:35;3.90;99.90
5394;DHT22;2720;52.396;10.064;2023-04-30T00:20:02;3.90;99.90
5394;DHT22;2720;52.396;10.064;2023-04-30T00:22:29;3.80;99.90
5394;DHT22;2720;52.396;10.064;2023-04-30T00:24:57;3.80;99.90
5394;DHT22;2720;52.396;10.064;2023-04-30T00:27:24;3.70;99.90
5394;DHT22;2720;52.396;10.064;2023-04-30T00:29:51;3.70;99.90
5394;DHT22;2720;52.396;10.064;2023-04-30T00:32:20;3.70;99.90
5394;DHT22;2720;52.396;10.064;2023-04-30T00:34:47;3.70;99.90
5394;DHT22;2720;52.396;10.064;2023-04-30T00:37:14;3.70;99.90
5394;DHT22;2720;52.396;10.064;2023-04-30T00:39:41;3.80;99.90
5394;DHT22;2720;52.396;10.064;2023-04-30T00:42:08;3.80;99.90
5394;DHT22;2720;52.396;10.064;2023-04-30T00:44:35;3.80;99.90
5394;DHT22;2720;52.396;10.064;2023-04-30T00:47:02;3.80;99.90
5394;DHT22;2720;52.396;10.064;2023-04-30T00:49:30;3.80;99.90
5394;DHT22;2720;52.396;10.064;2023-04-30T00:51:57;3.70;99.90
5394;DHT22;2720;52.396;10.064;2023-04-30T00:54:25;3.80;99.90
5394;DHT22;2720;52.396;10.064;2023-04-30T00:56:52;3.80;99.90
5394;DHT22;2720;52.396;10.064;2023-04-30T00:59:19;3.80;99.90
5394;DHT22;2720;52.396;10.064;2023-04-30T01:01:46;3.80;99.90
5394;DHT22;2720;52.396;10.064;2023-04-30T01:04:13;3.70;99.90
5394;DHT22;2720;52.396;10.064;2023-04-30T01:06:42;3.70;99.90
5394;DHT22;2720;52.396;10.064;2023-04-30T01:09:09;3.60;99.90
5394;DHT22;2720;52.396;10.064;2023-04-30T01:11:44;3.60;99.90
5394;DHT22;2720;52.396;10.064;2023-04-30T01:14:24;3.50;99.90
5394;DHT22;2720;52.396;10.064;2023-04-30T01:16:59;3.50;99.90
5394;DHT22;2720;52.396;10.064;2023-04-30T01:19:35;3.40;99.90
5394;DHT22;2720;52.396;10.064;2023-04-30T01:22:09;3.30;99.90
5394;DHT22;2720;52.396;10.064;2023-04-30T01:24:52;3.30;99.90
5394;DHT22;2720;52.396;10.064;2023-04-30T01:27:28;3.20;99.90
5394;DHT22;2720;52.396;10.064;2023-04-30T01:30:01;3.30;99.90
5394;DHT22;2720;52.396;10.064;2023-04-30T01:32:29;3.20;99.90
5394;DHT22;2720;52.396;10.064;2023-04-30T01:34:56;3.30;99.90
5394;DHT22;2720;52.396;10.064;2023-04-30T01:37:28;3.30;99.90
5394;DHT22;2720;52.396;10.064;2023-04-30T01:40:07;3.40;99.90
5394;DHT22;2720;52.396;10.064;2023-04-30T01:42:43;3.40;99.90
5394;DHT22;2720;52.396;10.064;2023-04-30T01:45:26;3.20;99.90
5394;DHT22;2720;52.396;10.064;2023-04-30T01:48:05;3.20;99.90
5394;DHT22;2720;52.396;10.064;2023-04-30T01:50:40;3.00;99.90
5394;DHT22;2720;52.396;10.064;2023-04-30T01:53:11;2.90;99.90
5394;DHT22;2720;52.396;10.064;2023-04-30T01:55:42;2.90;99.90
5394;DHT22;2720;52.396;10.064;2023-04-30T01:58:11;2.80;99.90
5394;DHT22;2720;52.396;10.064;2023-04-30T02:00:40;2.90;99.90
5394;DHT22;2720;52.396;10.064;2023-04-30T02:03:07;2.90;99.90
5394;DHT22;2720;52.396;10.064;2023-04-30T02:05:34;3.00;99.90
5394;DHT22;2720;52.396;10.064;2023-04-30T02:08:01;3.00;99.90
5394;DHT22;2720;52.396;10.064;2023-04-30T02:10:28;3.00;99.90
5394;DHT22;2720;52.396;10.064;2023-04-30T02:12:55;3.00;99.90
5394;DHT22;2720;52.396;10.064;2023-04-30T02:15:22;3.00;99.90
5394;DHT22;2720;52.396;10.064;2023-04-30T02:17:50;3.00;99.90
5394;DHT22;2720;52.396;10.064;2023-04-30T02:20:18;3.00;99.90
5394;DHT22;2720;52.396;10.064;2023-04-30T02:22:45;2.90;99.90
5394;DHT22;2720;52.396;10.064;2023-04-30T02:25:12;2.90;99.90
5394;DHT22;2720;52.396;10.064;2023-04-30T02:27:39;2.80;99.90
5394;DHT22;2720;52.396;10.064;2023-04-30T02:30:07;2.80;99.90
5394;DHT22;2720;52.396;10.064;2023-04-30T02:32:34;2.80;99.90
5394;DHT22;2720;52.396;10.064;2023-04-30T02:35:03;2.90;99.90
5394;DHT22;2720;52.396;10.064;2023-04-30T02:37:29;2.80;99.90
5394;DHT22;2720;52.396;10.064;2023-04-30T02:39:57;2.80;99.90
5394;DHT22;2720;52.396;10.064;2023-04-30T02:42:24;2.70;99.90
5394;DHT22;2720;52.396;10.064;2023-04-30T02:44:50;2.70;99.90
5394;DHT22;2720;52.396;10.064;2023-04-30T02:47:17;2.60;99.90
5394;DHT22;2720;52.396;10.064;2023-04-30T02:49:44;2.60;99.90
5394;DHT22;2720;52.396;10.064;2023-04-30T02:52:13;2.50;99.90
5394;DHT22;2720;52.396;10.064;2023-04-30T02:54:40;2.40;99.90
5394;DHT22;2720;52.396;10.064;2023-04-30T02:57:07;2.40;99.90
5394;DHT22;2720;52.396;10.064;2023-04-30T02:59:34;2.40;99.90
5394;DHT22;2720;52.396;10.064;2023-04-30T03:02:02;2.30;99.90
5394;DHT22;2720;52.396;10.064;2023-04-30T03:04:29;2.30;99.90
5394;DHT22;2720;52.396;10.064;2023-04-30T03:06:55;2.30;99.90
5394;DHT22;2720;52.396;10.064;2023-04-30T03:09:24;2.30;99.90
5394;DHT22;2720;52.396;10.064;2023-04-30T03:11:51;2.30;99.90
5394;DHT22;2720;52.396;10.064;2023-04-30T03:14:18;2.30;99.90
5394;DHT22;2720;52.396;10.064;2023-04-30T03:16:45;2.20;99.90
5394;DHT22;2720;52.396;10.064;2023-04-30T03:19:12;2.20;99.90
5394;DHT22;2720;52.396;10.064;2023-04-30T03:21:38;2.10;99.90
5394;DHT22;2720;52.396;10.064;2023-04-30T03:24:06;2.10;99.90
5394;DHT22;2720;52.396;10.064;2023-04-30T03:26:34;2.00;99.90
5394;DHT22;2720;52.396;10.064;2023-04-30T03:29:01;1.90;99.90
5394;DHT22;2720;52.396;10.064;2023-04-30T03:31:28;1.90;99.90
5394;DHT22;2720;52.396;10.064;2023-04-30T03:33:55;1.90;99.90
5394;DHT22;2720;52.396;10.064;2023-04-30T03:36:22;1.90;99.90
5394;DHT22;2720;52.396;10.064;2023-04-30T03:38:49;1.80;99.90
5394;DHT22;2720;52.396;10.064;2023-04-30T03:41:16;1.80;99.90
5394;DHT22;2720;52.396;10.064;2023-04-30T03:43:44;1.80;99.90
5394;DHT22;2720;52.396;10.064;2023-04-30T03:46:11;1.70;99.90
5394;DHT22;2720;52.396;10.064;2023-04-30T03:48:38;1.70;99.90
5394;DHT22;2720;52.396;10.064;2023-04-30T03:51:06;1.70;99.90
5394;DHT22;2720;52.396;10.064;2023-04-30T03:53:34;1.70;99.90
5394;DHT22;2720;52.396;10.064;2023-04-30T03:56:01;1.60;99.90
5394;DHT22;2720;52.396;10.064;2023-04-30T03:58:28;1.70;99.90
5394;DHT22;2720;52.396;10.064;2023-04-30T04:00:56;1.70;99.90
5394;DHT22;2720;52.396;10.064;2023-04-30T04:03:23;1.70;99.90
5394;DHT22;2720;52.396;10.064;2023-04-30T04:05:50;1.70;99.90
5394;DHT22;2720;52.396;10.064;2023-04-30T04:08:17;1.70;99.90
5394;DHT22;2720;52.396;10.064;2023-04-30T04:10:44;1.70;99.90
5394;DHT22;2720;52.396;10.064;2023-04-30T04:13:11;1.80;99.90
5394;DHT22;2720;52.396;10.064;2023-04-30T04:15:38;1.80;99.90
5394;DHT22;2720;52.396;10.064;2023-04-30T04:18:07;1.80;99.90
5394;DHT22;2720;52.396;10.064;2023-04-30T04:20:34;1.90;99.90
5394;DHT22;2720;52.396;10.064;2023-04-30T04:23:01;1.90;99.90
5394;DHT22;2720;52.396;10.064;2023-04-30T04:25:28;2.00;99.90
5394;DHT22;2720;52.396;10.064;2023-04-30T04:27:55;2.00;99.90
5394;DHT22;2720;52.396;10.064;2023-04-30T04:30:21;2.10;99.90
5394;DHT22;2720;52.396;10.064;2023-04-30T04:32:48;2.20;99.90
5394;DHT22;2720;52.396;10.064;2023-04-30T04:35:19;2.40;99.90
5394;DHT22;2720;52.396;10.064;2023-04-30T04:37:47;2.60;99.90
5394;DHT22;2720;52.396;10.064;2023-04-30T04:40:14;3.00;99.90
5394;DHT22;2720;52.396;10.064;2023-04-30T04:42:41;3.40;99.90
5394;DHT22;2720;52.396;10.064;2023-04-30T04:45:09;4.00;99.90
5394;DHT22;2720;52.396;10.064;2023-04-30T04:47:36;4.60;99.90
5394;DHT22;2720;52.396;10.064;2023-04-30T04:50:04;5.00;99.90
5394;DHT22;2720;52.396;10.064;2023-04-30T04:52:32;5.20;99.90
5394;DHT22;2720;52.396;10.064;2023-04-30T04:54:59;5.30;99.90
5394;DHT22;2720;52.396;10.064;2023-04-30T04:57:26;5.50;99.90
5394;DHT22;2720;52.396;10.064;2023-04-30T04:59:53;5.60;99.90
5394;DHT22;2720;52.396;10.064;2023-04-30T05:02:20;5.70;99.90
5394;DHT22;2720;52.396;10.064;2023-04-30T05:04:48;6.00;99.90
5394;DHT22;2720;52.396;10.064;2023-04-30T05:07:15;6.40;99.90
5394;DHT22;2720;52.396;10.064;2023-04-30T05:09:44;6.70;99.90
5394;DHT22;2720;52.396;10.064;2023-04-30T05:12:12;7.00;99.90
5394;DHT22;2720;52.396;10.064;2023-04-30T05:14:39;7.00;99.90
5394;DHT22;2720;52.396;10.064;2023-04-30T05:17:07;6.90;99.90
5394;DHT22;2720;52.396;10.064;2023-04-30T05:19:34;6.90;99.90
5394;DHT22;2720;52.396;10.064;2023-04-30T05:22:01;7.10;99.90
5394;DHT22;2720;52.396;10.064;2023-04-30T05:24:29;7.40;99.90
5394;DHT22;2720;52.396;10.064;2023-04-30T05:26:57;7.50;99.90
5394;DHT22;2720;52.396;10.064;2023-04-30T05:29:24;7.50;99.90
5394;DHT22;2720;52.396;10.064;2023-04-30T05:31:51;7.60;99.90
5394;DHT22;2720;52.396;10.064;2023-04-30T05:34:19;7.50;99.90
5394;DHT22;2720;52.396;10.064;2023-04-30T05:36:46;7.30;99.90
5394;DHT22;2720;52.396;10.064;2023-04-30T05:39:13;7.10;99.90
5394;DHT22;2720;52.396;10.064;2023-04-30T05:41:40;6.80;99.90
5394;DHT22;2720;52.396;10.064;2023-04-30T05:44:08;6.70;99.90
5394;DHT22;2720;52.396;10.064;2023-04-30T05:46:35;6.70;99.90
5394;DHT22;2720;52.396;10.064;2023-04-30T05:49:02;6.80;99.90
5394;DHT22;2720;52.396;10.064;2023-04-30T05:51:29;6.90;99.90
5394;DHT22;2720;52.396;10.064;2023-04-30T05:53:57;7.00;99.90
5394;DHT22;2720;52.396;10.064;2023-04-30T05:56:24;7.00;99.90
5394;DHT22;2720;52.396;10.064;2023-04-30T05:58:52;7.00;99.90
5394;DHT22;2720;52.396;10.064;2023-04-30T06:01:20;6.90;99.90
5394;DHT22;2720;52.396;10.064;2023-04-30T06:03:47;6.80;99.90
5394;DHT22;2720;52.396;10.064;2023-04-30T06:06:15;6.50;99.90
5394;DHT22;2720;52.396;10.064;2023-04-30T06:08:42;6.40;99.90
5394;DHT22;2720;52.396;10.064;2023-04-30T06:11:10;6.30;99.90
5394;DHT22;2720;52.396;10.064;2023-04-30T06:13:38;6.30;99.90
5394;DHT22;2720;52.396;10.064;2023-04-30T06:16:06;6.30;99.90
5394;DHT22;2720;52.396;10.064;2023-04-30T06:18:34;6.30;99.90
5394;DHT22;2720;52.396;10.064;2023-04-30T06:21:01;6.40;99.90
5394;DHT22;2720;52.396;10.064;2023-04-30T06:23:28;6.40;99.90
5394;DHT22;2720;52.396;10.064;2023-04-30T06:25:56;6.60;99.90
5394;DHT22;2720;52.396;10.064;2023-04-30T06:28:23;6.70;99.90
5394;DHT22;2720;52.396;10.064;2023-04-30T06:30:50;6.80;99.90
5394;DHT22;2720;52.396;10.064;2023-04-30T06:33:18;6.80;99.90
5394;DHT22;2720;52.396;10.064;2023-04-30T06:35:47;6.90;99.90
5394;DHT22;2720;52.396;10.064;2023-04-30T06:38:15;6.90;99.90
5394;DHT22;2720;52.396;10.064;2023-04-30T06:40:43;7.00;99.90
5394;DHT22;2720;52.396;10.064;2023-04-30T06:43:10;6.90;99.90
5394;DHT22;2720;52.396;10.064;2023-04-30T06:45:37;6.90;99.90
5394;DHT22;2720;52.396;10.064;2023-04-30T06:48:04;6.90;99.90
5394;DHT22;2720;52.396;10.064;2023-04-30T06:50:31;7.00;99.90
5394;DHT22;2720;52.396;10.064;2023-04-30T06:53:00;7.00;99.90
5394;DHT22;2720;52.396;10.064;2023-04-30T06:55:27;7.20;99.90
5394;DHT22;2720;52.396;10.064;2023-04-30T06:57:54;7.30;99.90
5394;DHT22;2720;52.396;10.064;2023-04-30T07:00:22;7.40;99.90
5394;DHT22;2720;52.396;10.064;2023-04-30T07:02:49;7.50;99.90
5394;DHT22;2720;52.396;10.064;2023-04-30T07:05:16;7.80;99.90
5394;DHT22;2720;52.396;10.064;2023-04-30T07:07:44;7.70;99.90
5394;DHT22;2720;52.396;10.064;2023-04-30T07:10:12;7.80;99.90
5394;DHT22;2720;52.396;10.064;2023-04-30T07:12:39;7.70;99.90
5394;DHT22;2720;52.396;10.064;2023-04-30T07:15:07;7.90;99.90
5394;DHT22;2720;52.396;10.064;2023-04-30T07:17:34;8.00;99.90
5394;DHT22;2720;52.396;10.064;2023-04-30T07:20:02;8.00;99.90
5394;DHT22;2720;52.396;10.064;2023-04-30T07:22:30;8.10;99.90
5394;DHT22;2720;52.396;10.064;2023-04-30T07:24:57;8.20;99.90
5394;DHT22;2720;52.396;10.064;2023-04-30T07:27:26;8.40;99.90
5394;DHT22;2720;52.396;10.064;2023-04-30T07:29:54;8.50;99.90
5394;DHT22;2720;52.396;10.064;2023-04-30T07:32:21;8.60;99.90
5394;DHT22;2720;52.396;10.064;2023-04-30T07:34:47;8.60;99.90
5394;DHT22;2720;52.396;10.064;2023-04-30T07:37:15;8.50;99.90
5394;DHT22;2720;52.396;10.064;2023-04-30T07:39:42;8.70;99.90
5394;DHT22;2720;52.396;10.064;2023-04-30T07:42:09;8.90;99.90
5394;DHT22;2720;52.396;10.064;2023-04-30T07:44:37;9.20;99.90
5394;DHT22;2720;52.396;10.064;2023-04-30T07:47:04;9.30;99.90
5394;DHT22;2720;52.396;10.064;2023-04-30T07:49:31;9.40;99.90
5394;DHT22;2720;52.396;10.064;2023-04-30T07:51:58;9.30;99.90
5394;DHT22;2720;52.396;10.064;2023-04-30T07:54:26;8.80;99.90
5394;DHT22;2720;52.396;10.064;2023-04-30T07:56:53;8.70;99.90
5394;DHT22;2720;52.396;10.064;2023-04-30T07:59:19;8.90;99.90
5394;DHT22;2720;52.396;10.064;2023-04-30T08:01:50;9.00;99.90
5394;DHT22;2720;52.396;10.064;2023-04-30T08:04:17;9.20;99.90
5394;DHT22;2720;52.396;10.064;2023-04-30T08:06:44;9.20;99.90
5394;DHT22;2720;52.396;10.064;2023-04-30T08:09:11;9.40;99.90
5394;DHT22;2720;52.396;10.064;2023-04-30T08:11:38;9.40;99.90
5394;DHT22;2720;52.396;10.064;2023-04-30T08:14:05;9.30;99.90
5394;DHT22;2720;52.396;10.064;2023-04-30T08:16:32;9.30;99.90
5394;DHT22;2720;52.396;10.064;2023-04-30T08:19:01;9.40;99.90
5394;DHT22;2720;52.396;10.064;2023-04-30T08:21:29;9.50;99.90
5394;DHT22;2720;52.396;10.064;2023-04-30T08:23:56;9.70;99.90
5394;DHT22;2720;52.396;10.064;2023-04-30T08:26:24;9.80;99.90
5394;DHT22;2720;52.396;10.064;2023-04-30T08:28:51;9.90;99.90
5394;DHT22;2720;52.396;10.064;2023-04-30T08:31:18;10.00;99.90
5394;DHT22;2720;52.396;10.064;2023-04-30T08:33:45;10.00;99.90
5394;DHT22;2720;52.396;10.064;2023-04-30T08:36:14;9.80;99.90
5394;DHT22;2720;52.396;10.064;2023-04-30T08:38:40;9.50;99.90
5394;DHT22;2720;52.396;10.064;2023-04-30T08:41:10;9.50;99.90
5394;DHT22;2720;52.396;10.064;2023-04-30T08:43:37;9.50;99.90
5394;DHT22;2720;52.396;10.064;2023-04-30T08:46:05;9.50;99.90
5394;DHT22;2720;52.396;10.064;2023-04-30T08:48:32;9.80;99.90
5394;DHT22;2720;52.396;10.064;2023-04-30T08:50:59;10.00;99.90
5394;DHT22;2720;52.396;10.064;2023-04-30T08:53:28;10.10;99.90
5394;DHT22;2720;52.396;10.064;2023-04-30T08:55:56;10.20;99.90
5394;DHT22;2720;52.396;10.064;2023-04-30T08:58:23;10.10;99.90
5394;DHT22;2720;52.396;10.064;2023-04-30T09:00:50;10.30;99.90
5394;DHT22;2720;52.396;10.064;2023-04-30T09:03:17;10.30;99.90
5394;DHT22;2720;52.396;10.064;2023-04-30T09:05:46;10.40;99.90
5394;DHT22;2720;52.396;10.064;2023-04-30T09:08:16;10.60;99.90
5394;DHT22;2720;52.396;10.064;2023-04-30T09:10:45;10.80;99.90
5394;DHT22;2720;52.396;10.064;2023-04-30T09:13:12;10.80;99.90
5394;DHT22;2720;52.396;10.064;2023-04-30T09:15:39;10.70;99.90
5394;DHT22;2720;52.396;10.064;2023-04-30T09:18:09;10.50;99.90
5394;DHT22;2720;52.396;10.064;2023-04-30T09:20:37;10.40;99.90
5394;DHT22;2720;52.396;10.064;2023-04-30T09:23:05;10.50;99.90
5394;DHT22;2720;52.396;10.064;2023-04-30T09:25:38;10.70;99.90
5394;DHT22;2720;52.396;10.064;2023-04-30T09:28:08;10.90;99.90
5394;DHT22;2720;52.396;10.064;2023-04-30T09:30:36;11.30;99.90
5394;DHT22;2720;52.396;10.064;2023-04-30T09:33:03;11.60;99.90
5394;DHT22;2720;52.396;10.064;2023-04-30T09:35:31;11.30;99.90
5394;DHT22;2720;52.396;10.064;2023-04-30T09:37:59;11.20;99.90
5394;DHT22;2720;52.396;10.064;2023-04-30T09:40:34;11.00;99.90
5394;DHT22;2720;52.396;10.064;2023-04-30T09:43:02;11.10;99.90
5394;DHT22;2720;52.396;10.064;2023-04-30T09:45:41;11.00;99.90
5394;DHT22;2720;52.396;10.064;2023-04-30T09:48:09;11.00;99.90
5394;DHT22;2720;52.396;10.064;2023-04-30T09:50:37;11.10;99.90
5394;DHT22;2720;52.396;10.064;2023-04-30T09:53:06;11.20;99.90
5394;DHT22;2720;52.396;10.064;2023-04-30T09:55:34;11.10;99.90
5394;DHT22;2720;52.396;10.064;2023-04-30T09:58:04;11.40;99.90
5394;DHT22;2720;52.396;10.064;2023-04-30T10:00:33;11.70;99.90
5394;DHT22;2720;52.396;10.064;2023-04-30T10:03:05;11.90;99.90
5394;DHT22;2720;52.396;10.064;2023-04-30T10:05:36;11.90;99.90
5394;DHT22;2720;52.396;10.064;2023-04-30T10:08:06;11.90;99.90
5394;DHT22;2720;52.396;10.064;2023-04-30T10:10:34;12.00;99.90
5394;DHT22;2720;52.396;10.064;2023-04-30T10:13:03;12.00;99.90
5394;DHT22;2720;52.396;10.064;2023-04-30T10:15:37;12.00;99.90
5394;DHT22;2720;52.396;10.064;2023-04-30T10:18:12;12.20;99.90
5394;DHT22;2720;52.396;10.064;2023-04-30T10:20:40;12.10;99.90
5394;DHT22;2720;52.396;10.064;2023-04-30T10:23:08;12.20;99.90
5394;DHT22;2720;52.396;10.064;2023-04-30T10:25:37;12.40;99.90
5394;DHT22;2720;52.396;10.064;2023-04-30T10:28:07;12.30;99.90
5394;DHT22;2720;52.396;10.064;2023-04-30T10:30:34;12.10;99.90
5394;DHT22;2720;52.396;10.064;2023-04-30T10:33:09;12.20;99.90
5394;DHT22;2720;52.396;10.064;2023-04-30T10:35:43;12.50;99.90
5394;DHT22;2720;52.396;10.064;2023-04-30T10:38:16;12.40;99.90
5394;DHT22;2720;52.396;10.064;2023-04-30T10:40:45;12.60;99.90
5394;DHT22;2720;52.396;10.064;2023-04-30T10:43:12;13.10;99.90
5394;DHT22;2720;52.396;10.064;2023-04-30T10:45:42;13.50;99.90
5394;DHT22;2720;52.396;10.064;2023-04-30T10:48:14;13.90;99.90
5394;DHT22;2720;52.396;10.064;2023-04-30T10:50:42;14.20;99.90
5394;DHT22;2720;52.396;10.064;2023-04-30T10:53:13;14.00;99.90
5394;DHT22;2720;52.396;10.064;2023-04-30T10:55:48;13.60;99.90
5394;DHT22;2720;52.396;10.064;2023-04-30T10:58:25;13.60;99.90
5394;DHT22;2720;52.396;10.064;2023-04-30T11:01:00;13.50;99.90
5394;DHT22;2720;52.396;10.064;2023-04-30T11:03:29;13.80;99.90
5394;DHT22;2720;52.396;10.064;2023-04-30T11:05:58;14.10;99.90
5394;DHT22;2720;52.396;10.064;2023-04-30T11:08:32;14.20;99.90
5394;DHT22;2720;52.396;10.064;2023-04-30T11:11:00;14.60;99.90
5394;DHT22;2720;52.396;10.064;2023-04-30T11:13:28;15.10;99.90
5394;DHT22;2720;52.396;10.064;2023-04-30T11:16:01;15.50;99.90
5394;DHT22;2720;52.396;10.064;2023-04-30T11:18:31;16.00;99.70
5394;DHT22;2720;52.396;10.064;2023-04-30T11:20:58;16.10;99.90
5394;DHT22;2720;52.396;10.064;2023-04-30T11:23:25;16.30;99.90
5394;DHT22;2720;52.396;10.064;2023-04-30T11:25:54;16.00;98.20
5394;DHT22;2720;52.396;10.064;2023-04-30T11:28:23;15.70;97.40
5394;DHT22;2720;52.396;10.064;2023-04-30T11:30:51;15.80;99.90
5394;DHT22;2720;52.396;10.064;2023-04-30T11:33:19;16.20;99.90
5394;DHT22;2720;52.396;10.064;2023-04-30T11:35:49;16.60;99.90
5394;DHT22;2720;52.396;10.064;2023-04-30T11:38:19;17.00;99.90
5394;DHT22;2720;52.396;10.064;2023-04-30T11:40:47;16.50;96.90
5394;DHT22;2720;52.396;10.064;2023-04-30T11:43:22;16.00;97.30
5394;DHT22;2720;52.396;10.064;2023-04-30T11:46:03;15.30;97.90
5394;DHT22;2720;52.396;10.064;2023-04-30T11:48:32;15.30;99.90
5394;DHT22;2720;52.396;10.064;2023-04-30T11:51:02;16.00;99.90
5394;DHT22;2720;52.396;10.064;2023-04-30T11:53:29;16.70;99.40
5394;DHT22;2720;52.396;10.064;2023-04-30T11:55:56;17.30;99.90
5394;DHT22;2720;52.396;10.064;2023-04-30T11:58:23;17.10;96.40
5394;DHT22;2720;52.396;10.064;2023-04-30T12:00:50;16.30;96.90
5394;DHT22;2720;52.396;10.064;2023-04-30T12:03:18;16.50;99.90
5394;DHT22;2720;52.396;10.064;2023-04-30T12:05:45;16.90;98.90
5394;DHT22;2720;52.396;10.064;2023-04-30T12:08:18;16.90;96.50
5394;DHT22;2720;52.396;10.064;2023-04-30T12:10:45;16.60;95.10
5394;DHT22;2720;52.396;10.064;2023-04-30T12:13:13;16.10;96.20
5394;DHT22;2720;52.396;10.064;2023-04-30T12:15:41;16.50;96.50
5394;DHT22;2720;52.396;10.064;2023-04-30T12:18:12;16.70;98.00
5394;DHT22;2720;52.396;10.064;2023-04-30T12:20:40;17.20;99.50
5394;DHT22;2720;52.396;10.064;2023-04-30T12:23:08;17.00;95.00
5394;DHT22;2720;52.396;10.064;2023-04-30T12:25:41;16.10;95.40
5394;DHT22;2720;52.396;10.064;2023-04-30T12:28:09;16.10;94.60
5394;DHT22;2720;52.396;10.064;2023-04-30T12:30:36;16.50;99.40
5394;DHT22;2720;52.396;10.064;2023-04-30T12:33:03;17.00;95.50
5394;DHT22;2720;52.396;10.064;2023-04-30T12:35:30;17.20;95.00
5394;DHT22;2720;52.396;10.064;2023-04-30T12:38:04;17.20;95.00
5394;DHT22;2720;52.396;10.064;2023-04-30T12:40:32;17.30;95.40
5394;DHT22;2720;52.396;10.064;2023-04-30T12:43:02;17.40;95.70
5394;DHT22;2720;52.396;10.064;2023-04-30T12:45:46;18.00;98.20
5394;DHT22;2720;52.396;10.064;2023-04-30T12:48:14;18.30;95.60
5394;DHT22;2720;52.396;10.064;2023-04-30T12:50:41;18.60;95.40
5394;DHT22;2720;52.396;10.064;2023-04-30T12:53:12;18.90;93.20
5394;DHT22;2720;52.396;10.064;2023-04-30T12:55:40;19.10;96.90
5394;DHT22;2720;52.396;10.064;2023-04-30T12:58:09;18.90;95.60
5394;DHT22;2720;52.396;10.064;2023-04-30T13:00:47;19.30;96.10
5394;DHT22;2720;52.396;10.064;2023-04-30T13:03:16;19.50;94.10
5394;DHT22;2720;52.396;10.064;2023-04-30T13:05:46;18.70;92.90
5394;DHT22;2720;52.396;10.064;2023-04-30T13:08:14;18.40;93.50
5394;DHT22;2720;52.396;10.064;2023-04-30T13:10:41;18.60;93.90
5394;DHT22;2720;52.396;10.064;2023-04-30T13:13:11;18.70;95.70
5394;DHT22;2720;52.396;10.064;2023-04-30T13:15:38;18.80;92.30
5394;DHT22;2720;52.396;10.064;2023-04-30T13:18:06;18.40;91.80
5394;DHT22;2720;52.396;10.064;2023-04-30T13:20:33;18.00;93.20
5394;DHT22;2720;52.396;10.064;2023-04-30T13:23:00;18.20;92.90
5394;DHT22;2720;52.396;10.064;2023-04-30T13:25:28;18.40;94.80
5394;DHT22;2720;52.396;10.064;2023-04-30T13:27:55;18.90;96.10
5394;DHT22;2720;52.396;10.064;2023-04-30T13:30:24;19.50;96.80
5394;DHT22;2720;52.396;10.064;2023-04-30T13:32:51;20.20;94.90
5394;DHT22;2720;52.396;10.064;2023-04-30T13:35:19;19.90;90.50
5394;DHT22;2720;52.396;10.064;2023-04-30T13:37:46;20.10;94.50
5394;DHT22;2720;52.396;10.064;2023-04-30T13:40:14;20.10;91.30
5394;DHT22;2720;52.396;10.064;2023-04-30T13:42:41;19.40;90.40
5394;DHT22;2720;52.396;10.064;2023-04-30T13:45:09;19.20;93.10
5394;DHT22;2720;52.396;10.064;2023-04-30T13:47:38;19.50;91.30
5394;DHT22;2720;52.396;10.064;2023-04-30T13:50:06;19.20;91.30
5394;DHT22;2720;52.396;10.064;2023-04-30T13:52:34;18.30;91.70
5394;DHT22;2720;52.396;10.064;2023-04-30T13:55:02;18.20;91.70
5394;DHT22;2720;52.396;10.064;2023-04-30T13:57:29;18.80;95.20
5394;DHT22;2720;52.396;10.064;2023-04-30T13:59:57;19.50;91.50
5394;DHT22;2720;52.396;10.064;2023-04-30T14:02:25;19.70;91.10
5394;DHT22;2720;52.396;10.064;2023-04-30T14:04:54;19.30;90.00
5394;DHT22;2720;52.396;10.064;2023-04-30T14:07:23;19.00;91.30
5394;DHT22;2720;52.396;10.064;2023-04-30T14:09:49;19.10;91.90
5394;DHT22;2720;52.396;10.064;2023-04-30T14:12:16;19.00;90.00
5394;DHT22;2720;52.396;10.064;2023-04-30T14:14:43;18.60;91.00
5394;DHT22;2720;52.396;10.064;2023-04-30T14:17:10;18.60;90.90
5394;DHT22;2720;52.396;10.064;2023-04-30T14:19:37;18.90;90.70
5394;DHT22;2720;52.396;10.064;2023-04-30T14:22:06;19.00;88.60
5394;DHT22;2720;52.396;10.064;2023-04-30T14:24:32;19.10;90.20
5394;DHT22;2720;52.396;10.064;2023-04-30T14:26:59;19.20;90.00
5394;DHT22;2720;52.396;10.064;2023-04-30T14:29:28;19.60;90.10
5394;DHT22;2720;52.396;10.064;2023-04-30T14:31:55;20.00;91.00
5394;DHT22;2720;52.396;10.064;2023-04-30T14:34:22;19.80;90.10
5394;DHT22;2720;52.396;10.064;2023-04-30T14:36:50;19.20;89.60
5394;DHT22;2720;52.396;10.064;2023-04-30T14:39:18;18.50;89.80
5394;DHT22;2720;52.396;10.064;2023-04-30T14:41:45;18.20;91.30
5394;DHT22;2720;52.396;10.064;2023-04-30T14:44:12;18.50;91.60
5394;DHT22;2720;52.396;10.064;2023-04-30T14:46:39;18.50;90.00
5394;DHT22;2720;52.396;10.064;2023-04-30T14:49:06;18.70;93.60
5394;DHT22;2720;52.396;10.064;2023-04-30T14:51:33;19.20;89.80
5394;DHT22;2720;52.396;10.064;2023-04-30T14:54:00;19.30;89.60
5394;DHT22;2720;52.396;10.064;2023-04-30T14:56:29;19.40;88.70
5394;DHT22;2720;52.396;10.064;2023-04-30T14:58:56;19.90;90.90
5394;DHT22;2720;52.396;10.064;2023-04-30T15:01:23;20.10;90.40
5394;DHT22;2720;52.396;10.064;2023-04-30T15:03:50;19.80;89.00
5394;DHT22;2720;52.396;10.064;2023-04-30T15:06:17;19.30;86.90
5394;DHT22;2720;52.396;10.064;2023-04-30T15:08:44;19.00;87.40
5394;DHT22;2720;52.396;10.064;2023-04-30T15:11:11;18.60;87.20
5394;DHT22;2720;52.396;10.064;2023-04-30T15:13:40;18.40;88.90
5394;DHT22;2720;52.396;10.064;2023-04-30T15:16:07;18.50;91.70
5394;DHT22;2720;52.396;10.064;2023-04-30T15:18:34;19.00;89.30
5394;DHT22;2720;52.396;10.064;2023-04-30T15:21:01;19.50;89.00
5394;DHT22;2720;52.396;10.064;2023-04-30T15:23:28;19.60;89.40
5394;DHT22;2720;52.396;10.064;2023-04-30T15:25:56;19.30;88.30
5394;DHT22;2720;52.396;10.064;2023-04-30T15:28:23;19.70;92.70
5394;DHT22;2720;52.396;10.064;2023-04-30T15:30:51;19.60;86.30
5394;DHT22;2720;52.396;10.064;2023-04-30T15:33:18;19.70;88.40
5394;DHT22;2720;52.396;10.064;2023-04-30T15:35:45;19.10;86.90
5394;DHT22;2720;52.396;10.064;2023-04-30T15:38:13;19.20;88.00
5394;DHT22;2720;52.396;10.064;2023-04-30T15:40:40;19.10;88.70
5394;DHT22;2720;52.396;10.064;2023-04-30T15:43:07;19.00;88.60
5394;DHT22;2720;52.396;10.064;2023-04-30T15:45:34;18.60;88.90
5394;DHT22;2720;52.396;10.064;2023-04-30T15:48:03;18.10;89.40
5394;DHT22;2720;52.396;10.064;2023-04-30T15:50:30;17.70;89.20
5394;DHT22;2720;52.396;10.064;2023-04-30T15:52:57;17.40;90.90
5394;DHT22;2720;52.396;10.064;2023-04-30T15:55:24;17.60;90.60
5394;DHT22;2720;52.396;10.064;2023-04-30T15:57:51;17.50;89.00
5394;DHT22;2720;52.396;10.064;2023-04-30T16:00:19;17.40;90.30